createdAt,value
2022-11-18T00:00:55.888Z,1.63
2022-11-18T00:03:23.102Z,1.88
2022-11-18T00:05:57.648Z,2.05
2022-11-18T00:08:25.282Z,1.90
2022-11-18T00:10:52.484Z,2.20
2022-11-18T00:13:37.391Z,2.42
2022-11-18T00:16:06.688Z,1.73
2022-11-18T00:18:33.422Z,2.00
2022-11-18T00:21:05.169Z,1.90
2022-11-18T00:23:31.958Z,2.00
2022-11-18T00:26:03.448Z,1.67
2022-11-18T00:28:30.849Z,1.45
2022-11-18T00:31:02.748Z,2.05
2022-11-18T00:33:29.190Z,2.33
2022-11-18T00:35:56.370Z,2.08
2022-11-18T00:38:22.958Z,2.60
2022-11-18T00:40:49.399Z,2.10
2022-11-18T00:43:16.140Z,1.95
2022-11-18T00:45:43.197Z,2.20
2022-11-18T00:48:09.711Z,1.73
2022-11-18T00:50:36.099Z,2.38
2022-11-18T00:53:02.606Z,2.10
2022-11-18T00:55:29.016Z,1.73
2022-11-18T00:57:55.475Z,1.48
2022-11-18T01:00:21.829Z,1.35
2022-11-18T01:02:48.328Z,1.85
2022-11-18T01:05:14.767Z,2.05
2022-11-18T01:07:41.443Z,1.95
2022-11-18T01:10:08.161Z,2.08
2022-11-18T01:12:54.701Z,1.95
2022-11-18T01:15:21.216Z,2.35
2022-11-18T01:17:47.657Z,2.92
2022-11-18T01:20:15.599Z,2.50
2022-11-18T01:22:42.178Z,3.47
2022-11-18T01:25:08.907Z,3.55
2022-11-18T01:27:35.379Z,3.58
2022-11-18T01:30:01.867Z,2.83
2022-11-18T01:32:28.597Z,2.67
2022-11-18T01:34:54.985Z,3.53
2022-11-18T01:37:21.534Z,2.53
2022-11-18T01:39:47.976Z,2.20
2022-11-18T01:42:16.800Z,2.50
2022-11-18T01:45:05.218Z,2.25
2022-11-18T01:47:42.650Z,2.47
2022-11-18T01:50:10.035Z,2.22
2022-11-18T01:52:37.706Z,2.55
2022-11-18T01:55:11.581Z,3.00
2022-11-18T01:57:38.417Z,2.65
2022-11-18T02:00:06.485Z,3.13
2022-11-18T02:02:36.367Z,3.05
2022-11-18T02:05:05.097Z,3.00
2022-11-18T02:07:35.591Z,2.88
2022-11-18T02:10:05.143Z,3.05
2022-11-18T02:12:31.820Z,3.38
2022-11-18T02:14:59.403Z,2.67
2022-11-18T02:18:03.261Z,3.25
2022-11-18T02:20:37.171Z,2.92
2022-11-18T02:23:09.663Z,3.50
2022-11-18T02:25:54.364Z,2.55
2022-11-18T02:28:36.809Z,3.40
2022-11-18T02:31:19.220Z,3.00
2022-11-18T02:33:54.342Z,2.90
2022-11-18T02:38:57.085Z,2.78
2022-11-18T02:41:27.815Z,2.30
2022-11-18T02:43:59.383Z,2.67
2022-11-18T02:46:30.181Z,3.38
2022-11-18T02:48:57.186Z,2.45
2022-11-18T02:51:27.037Z,2.83
2022-11-18T02:53:57.251Z,2.65
2022-11-18T02:56:27.101Z,2.35
2022-11-18T02:58:53.729Z,2.72
2022-11-18T03:01:24.838Z,2.95
2022-11-18T03:03:51.455Z,2.53
2022-11-18T03:06:36.278Z,2.72
2022-11-18T03:09:08.632Z,2.80
2022-11-18T03:12:10.180Z,2.88
2022-11-18T03:14:46.826Z,2.70
2022-11-18T03:17:34.632Z,2.42
2022-11-18T03:20:28.354Z,2.75
2022-11-18T03:23:04.383Z,2.60
2022-11-18T03:25:44.000Z,2.80
2022-11-18T03:28:38.283Z,3.15
2022-11-18T03:31:18.871Z,2.95
2022-11-18T03:33:51.938Z,2.72
2022-11-18T03:36:22.882Z,2.53
2022-11-18T03:38:54.199Z,2.58
2022-11-18T03:41:23.897Z,2.60
2022-11-18T03:43:59.561Z,2.60
2022-11-18T03:46:32.587Z,2.15
2022-11-18T03:49:00.275Z,2.10
2022-11-18T03:51:35.715Z,2.88
2022-11-18T03:54:21.905Z,2.58
2022-11-18T03:56:57.783Z,2.60
2022-11-18T03:59:35.722Z,2.10
2022-11-18T04:02:15.360Z,2.70
2022-11-18T04:04:45.474Z,2.88
2022-11-18T04:07:14.756Z,2.42
2022-11-18T04:10:04.176Z,2.20
2022-11-18T04:12:33.077Z,2.10
2022-11-18T04:15:01.180Z,2.60
2022-11-18T04:17:28.606Z,2.33
2022-11-18T04:19:55.611Z,2.33
2022-11-18T04:22:22.267Z,2.78
2022-11-18T04:24:48.746Z,3.13
2022-11-18T04:27:15.139Z,2.70
2022-11-18T04:29:41.626Z,2.67
2022-11-18T04:32:08.133Z,2.20
2022-11-18T04:34:34.687Z,2.75
2022-11-18T04:37:01.115Z,2.40
2022-11-18T04:39:28.500Z,2.65
2022-11-18T04:41:57.874Z,3.03
2022-11-18T04:44:34.562Z,2.35
2022-11-18T04:47:03.648Z,2.60
2022-11-18T04:49:30.557Z,3.08
2022-11-18T04:51:59.159Z,3.20
2022-11-18T04:54:26.670Z,3.50
2022-11-18T04:56:54.117Z,3.88
2022-11-18T04:59:26.434Z,3.47
2022-11-18T05:01:53.935Z,2.75
2022-11-18T05:04:23.271Z,3.17
2022-11-18T05:06:50.049Z,3.00
2022-11-18T05:09:18.158Z,3.50
2022-11-18T05:12:04.348Z,3.08
2022-11-18T05:14:31.370Z,2.95
2022-11-18T05:17:00.150Z,3.28
2022-11-18T05:19:26.813Z,3.03
2022-11-18T05:21:53.941Z,3.17
2022-11-18T05:24:20.953Z,3.40
2022-11-18T05:26:47.570Z,3.50
2022-11-18T05:29:14.007Z,3.20
2022-11-18T05:31:40.587Z,2.78
2022-11-18T05:34:06.972Z,2.83
2022-11-18T05:36:34.605Z,3.47
2022-11-18T05:39:01.569Z,2.95
2022-11-18T05:41:47.631Z,3.67
2022-11-18T05:44:14.142Z,3.33
2022-11-18T05:46:40.507Z,3.25
2022-11-18T05:49:07.652Z,3.25
2022-11-18T05:51:35.879Z,3.33
2022-11-18T05:54:10.413Z,3.10
2022-11-18T05:56:44.998Z,3.25
2022-11-18T05:59:11.920Z,3.42
2022-11-18T06:01:40.342Z,3.38
2022-11-18T06:04:15.273Z,3.17
2022-11-18T06:06:43.260Z,3.05
2022-11-18T06:09:12.121Z,2.72
2022-11-18T06:11:43.679Z,3.05
2022-11-18T06:14:14.963Z,3.20
2022-11-18T06:16:49.960Z,3.40
2022-11-18T06:19:17.240Z,3.85
2022-11-18T06:21:45.355Z,3.30
2022-11-18T06:24:13.545Z,2.80
2022-11-18T06:26:40.981Z,2.65
2022-11-18T06:29:10.266Z,2.50
2022-11-18T06:31:36.919Z,2.67
2022-11-18T06:34:03.404Z,2.55
2022-11-18T06:36:30.087Z,2.63
2022-11-18T06:38:56.570Z,2.80
2022-11-18T06:41:23.373Z,3.15
2022-11-18T06:43:49.812Z,2.72
2022-11-18T06:46:36.022Z,2.78
2022-11-18T06:49:03.317Z,2.65
2022-11-18T06:51:30.066Z,2.60
2022-11-18T06:53:56.465Z,2.63
2022-11-18T06:56:23.967Z,3.17
2022-11-18T06:58:57.884Z,3.17
2022-11-18T07:01:26.982Z,2.63
2022-11-18T07:03:53.644Z,2.50
2022-11-18T07:06:23.628Z,2.30
2022-11-18T07:08:51.151Z,2.30
2022-11-18T07:11:20.543Z,2.30
2022-11-18T07:13:47.816Z,2.72
2022-11-18T07:16:16.929Z,2.97
2022-11-18T07:18:44.771Z,2.72
2022-11-18T07:21:17.026Z,3.08
2022-11-18T07:23:44.422Z,3.97
2022-11-18T07:26:11.721Z,3.13
2022-11-18T07:28:38.139Z,3.75
2022-11-18T07:31:15.865Z,3.45
2022-11-18T07:33:43.318Z,3.20
2022-11-18T07:36:12.283Z,3.55
2022-11-18T07:38:39.536Z,3.20
2022-11-18T07:41:08.837Z,3.65
2022-11-18T07:43:36.399Z,4.05
2022-11-18T07:46:27.074Z,4.30
2022-11-18T07:48:56.311Z,5.25
2022-11-18T07:51:25.562Z,4.90
2022-11-18T07:53:52.397Z,4.80
2022-11-18T07:56:21.102Z,3.85
2022-11-18T07:58:47.880Z,4.60
2022-11-18T08:01:16.930Z,5.20
2022-11-18T08:03:44.194Z,4.80
2022-11-18T08:06:12.571Z,4.53
2022-11-18T08:08:39.228Z,4.40
2022-11-18T08:11:08.501Z,5.20
2022-11-18T08:13:35.725Z,4.50
2022-11-18T08:16:03.380Z,4.75
2022-11-18T08:18:31.804Z,3.83
2022-11-18T08:21:03.352Z,4.25
2022-11-18T08:23:33.157Z,4.40
2022-11-18T08:26:07.796Z,4.32
2022-11-18T08:28:34.284Z,3.97
2022-11-18T08:31:08.372Z,4.15
2022-11-18T08:33:34.760Z,4.07
2022-11-18T08:36:07.007Z,4.20
2022-11-18T08:38:33.621Z,4.90
2022-11-18T08:41:00.148Z,4.30
2022-11-18T08:43:26.800Z,4.70
2022-11-18T08:45:53.173Z,4.07
2022-11-18T08:48:19.567Z,4.85
2022-11-18T08:50:46.161Z,4.35
2022-11-18T08:53:12.494Z,4.20
2022-11-18T08:55:38.977Z,4.18
2022-11-18T08:58:05.317Z,3.92
2022-11-18T09:00:31.864Z,3.80
2022-11-18T09:02:58.277Z,3.88
2022-11-18T09:05:24.686Z,4.18
2022-11-18T09:07:51.667Z,4.40
2022-11-18T09:10:18.311Z,3.90
2022-11-18T09:12:44.847Z,3.95
2022-11-18T09:15:13.825Z,3.63
2022-11-18T09:17:41.203Z,4.30
2022-11-18T09:20:08.257Z,3.80
2022-11-18T09:22:37.355Z,4.20
2022-11-18T09:25:03.887Z,3.90
2022-11-18T09:27:30.556Z,3.95
2022-11-18T09:29:56.997Z,4.03
2022-11-18T09:32:23.573Z,3.50
2022-11-18T09:34:49.980Z,3.75
2022-11-18T09:37:16.424Z,3.28
2022-11-18T09:39:43.021Z,3.40
2022-11-18T09:42:26.391Z,3.30
2022-11-18T09:45:15.302Z,3.53
2022-11-18T09:47:43.751Z,3.45
2022-11-18T09:50:47.704Z,3.92
2022-11-18T09:53:14.343Z,2.95
2022-11-18T09:55:42.018Z,3.20
2022-11-18T09:58:18.495Z,3.28
2022-11-18T10:00:46.076Z,2.90
2022-11-18T10:03:31.972Z,2.55
2022-11-18T10:06:23.394Z,2.55
2022-11-18T10:09:20.922Z,2.33
2022-11-18T10:12:25.930Z,2.30
2022-11-18T10:15:33.742Z,2.55
2022-11-18T10:18:52.859Z,1.90
2022-11-18T10:21:41.271Z,1.77
2022-11-18T10:24:23.947Z,1.88
2022-11-18T10:26:56.033Z,2.10
2022-11-18T10:29:23.656Z,2.05
2022-11-18T10:32:04.292Z,2.28
2022-11-18T10:34:32.900Z,1.98
2022-11-18T10:36:59.891Z,1.75
2022-11-18T10:39:26.397Z,2.45
2022-11-18T10:42:18.024Z,2.40
2022-11-18T10:44:44.411Z,2.33
2022-11-18T10:47:16.854Z,2.40
2022-11-18T10:49:43.295Z,1.88
2022-11-18T10:52:11.890Z,2.60
2022-11-18T10:54:39.009Z,2.20
2022-11-18T10:57:24.720Z,2.20
2022-11-18T10:59:54.522Z,2.10
2022-11-18T11:02:31.846Z,2.15
2022-11-18T11:05:01.568Z,2.58
2022-11-18T11:07:36.175Z,2.45
2022-11-18T11:10:08.476Z,2.30
2022-11-18T11:12:38.103Z,2.13
2022-11-18T11:15:18.572Z,2.22
2022-11-18T11:18:25.338Z,2.20
2022-11-18T11:20:52.604Z,2.30
2022-11-18T11:23:23.490Z,1.83
2022-11-18T11:28:52.946Z,1.80
2022-11-18T11:31:35.590Z,1.75
2022-11-18T11:34:25.917Z,1.20
2022-11-18T11:37:15.533Z,1.50
2022-11-18T11:40:00.708Z,2.38
2022-11-18T11:42:58.815Z,1.60
2022-11-18T11:45:28.431Z,1.63
2022-11-18T11:48:13.084Z,1.52
2022-11-18T11:51:05.010Z,1.77
2022-11-18T11:53:44.228Z,1.50
2022-11-18T11:56:28.993Z,1.45
2022-11-18T11:59:05.869Z,1.55
2022-11-18T12:01:50.995Z,1.40
2022-11-18T12:04:49.792Z,1.50
2022-11-18T12:07:32.495Z,1.50
2022-11-18T12:10:05.370Z,1.60
2022-11-18T12:12:42.402Z,1.50
2022-11-18T12:15:26.817Z,1.70
2022-11-18T12:17:53.096Z,1.40
2022-11-18T12:20:38.327Z,1.67
2022-11-18T12:23:12.226Z,1.45
2022-11-18T12:25:47.619Z,1.42
2022-11-18T12:28:26.342Z,1.42
2022-11-18T12:31:17.698Z,1.30
2022-11-18T12:33:50.020Z,1.10
2022-11-18T12:36:31.060Z,1.52
2022-11-18T12:38:58.321Z,1.42
2022-11-18T12:42:15.267Z,1.40
2022-11-18T12:44:43.276Z,1.45
2022-11-18T12:47:31.510Z,1.25
2022-11-18T12:50:00.790Z,1.50
2022-11-18T12:52:48.426Z,1.30
2022-11-18T12:55:24.991Z,1.35
2022-11-18T12:57:51.912Z,1.50
2022-11-18T13:00:24.119Z,1.38
2022-11-18T13:02:52.337Z,1.38
2022-11-18T13:05:24.416Z,1.50
2022-11-18T13:08:14.802Z,1.27
2022-11-18T13:10:55.857Z,1.20
2022-11-18T13:13:33.217Z,1.00
2022-11-18T13:16:35.572Z,1.38
2022-11-18T13:19:04.459Z,1.40
2022-11-18T13:21:49.548Z,1.02
2022-11-18T13:24:21.665Z,0.88
2022-11-18T13:26:54.352Z,1.27
2022-11-18T13:29:36.389Z,1.27
2022-11-18T13:32:22.606Z,0.80
2022-11-18T13:34:57.606Z,1.20
2022-11-18T13:37:32.099Z,1.05
2022-11-18T13:39:58.546Z,1.00
2022-11-18T13:42:27.261Z,1.13
2022-11-18T13:44:58.769Z,1.25
2022-11-18T13:47:31.235Z,0.90
2022-11-18T13:50:28.826Z,1.20
2022-11-18T13:53:26.962Z,0.90
2022-11-18T13:56:04.550Z,1.08
2022-11-18T13:59:10.276Z,1.70
2022-11-18T14:01:32.179Z,1.70
2022-11-18T14:04:01.836Z,1.30
2022-11-18T14:06:32.543Z,1.20
2022-11-18T14:09:14.064Z,1.10
2022-11-18T14:11:43.094Z,1.42
2022-11-18T14:14:27.992Z,1.60
2022-11-18T14:17:05.199Z,1.40
2022-11-18T14:19:33.784Z,1.10
2022-11-18T14:22:10.069Z,1.15
2022-11-18T14:24:39.606Z,1.20
2022-11-18T14:27:38.431Z,1.50
2022-11-18T14:30:34.010Z,1.10
2022-11-18T14:33:06.209Z,1.40
2022-11-18T14:35:35.153Z,1.58
2022-11-18T14:38:30.275Z,1.33
2022-11-18T14:40:58.629Z,1.42
2022-11-18T14:43:25.924Z,1.45
2022-11-18T14:45:55.531Z,1.73
2022-11-18T14:48:26.059Z,1.15
2022-11-18T14:50:56.238Z,1.23
2022-11-18T14:53:22.629Z,1.00
2022-11-18T14:55:51.669Z,1.00
2022-11-18T14:58:18.183Z,0.90
2022-11-18T15:00:47.597Z,1.10
2022-11-18T15:03:14.794Z,1.00
2022-11-18T15:05:41.640Z,1.17
2022-11-18T15:08:08.245Z,0.93
2022-11-18T15:10:35.012Z,1.13
2022-11-18T15:13:01.383Z,1.52
2022-11-18T15:15:28.071Z,1.42
2022-11-18T15:17:54.509Z,2.03
2022-11-18T15:20:23.211Z,1.75
2022-11-18T15:22:51.041Z,1.58
2022-11-18T15:25:17.649Z,1.38
2022-11-18T15:27:44.067Z,1.30
2022-11-18T15:30:14.660Z,1.25
2022-11-18T15:32:41.629Z,1.30
2022-11-18T15:35:10.978Z,1.15
2022-11-18T15:37:37.380Z,1.10
2022-11-18T15:40:04.262Z,1.00
2022-11-18T15:42:30.708Z,1.02
2022-11-18T15:44:57.181Z,0.93
2022-11-18T15:47:25.164Z,0.70
2022-11-18T15:49:51.623Z,0.98
2022-11-18T15:52:18.950Z,0.82
2022-11-18T15:54:45.384Z,1.00
2022-11-18T15:57:11.868Z,1.10
2022-11-18T15:59:38.269Z,2.47
2022-11-18T16:02:04.858Z,1.20
2022-11-18T16:04:31.277Z,1.45
2022-11-18T16:06:59.955Z,1.40
2022-11-18T16:09:47.498Z,1.20
2022-11-18T16:12:32.643Z,1.35
2022-11-18T16:15:17.823Z,1.30
2022-11-18T16:17:44.628Z,1.52
2022-11-18T16:20:11.292Z,1.40
2022-11-18T16:22:37.760Z,1.10
2022-11-18T16:25:04.509Z,1.15
2022-11-18T16:27:31.792Z,1.30
2022-11-18T16:29:58.571Z,1.33
2022-11-18T16:32:25.160Z,1.20
2022-11-18T16:34:55.269Z,1.30
2022-11-18T16:37:24.669Z,1.80
2022-11-18T16:39:51.035Z,3.25
2022-11-18T16:42:17.500Z,2.70
2022-11-18T16:44:43.911Z,1.58
2022-11-18T16:47:14.951Z,1.67
2022-11-18T16:49:42.681Z,1.60
2022-11-18T16:52:09.261Z,2.20
2022-11-18T16:54:41.078Z,2.70
2022-11-18T16:57:11.056Z,2.63
2022-11-18T16:59:37.575Z,3.00
2022-11-18T17:02:05.103Z,2.97
2022-11-18T17:04:33.511Z,3.22
2022-11-18T17:07:00.197Z,2.85
2022-11-18T17:09:27.701Z,2.75
2022-11-18T17:11:55.209Z,2.38
2022-11-18T17:14:22.712Z,2.47
2022-11-18T17:16:49.733Z,2.20
2022-11-18T17:19:22.052Z,1.90
2022-11-18T17:21:50.223Z,2.00
2022-11-18T17:24:20.000Z,1.40
2022-11-18T17:26:47.388Z,1.50
2022-11-18T17:29:14.330Z,1.58
2022-11-18T17:31:41.939Z,1.70
2022-11-18T17:34:13.880Z,1.25
2022-11-18T17:36:41.074Z,2.70
2022-11-18T17:39:10.632Z,2.58
2022-11-18T17:41:55.519Z,4.30
2022-11-18T17:44:22.218Z,3.63
2022-11-18T17:46:49.234Z,3.60
2022-11-18T17:49:21.070Z,4.88
2022-11-18T17:51:48.130Z,3.30
2022-11-18T17:54:14.900Z,2.58
2022-11-18T17:56:41.990Z,2.50
2022-11-18T17:59:08.579Z,2.08
2022-11-18T18:01:35.655Z,1.90
2022-11-18T18:04:02.751Z,3.22
2022-11-18T18:06:29.295Z,3.38
2022-11-18T18:08:57.402Z,3.60
2022-11-18T18:11:24.195Z,4.20
2022-11-18T18:14:09.571Z,3.25
2022-11-18T18:16:36.248Z,3.90
2022-11-18T18:19:04.869Z,3.85
2022-11-18T18:21:32.156Z,2.40
2022-11-18T18:23:58.892Z,7.13
2022-11-18T18:26:31.314Z,9.98
2022-11-18T18:29:01.763Z,12.25
2022-11-18T18:31:29.029Z,8.45
2022-11-18T18:33:55.675Z,6.25
2022-11-18T18:36:22.967Z,5.57
2022-11-18T18:38:49.468Z,5.25
2022-11-18T18:41:18.855Z,4.80
2022-11-18T18:43:46.031Z,4.13
2022-11-18T18:46:30.186Z,4.82
2022-11-18T18:49:29.771Z,4.18
2022-11-18T18:51:56.245Z,3.35
2022-11-18T18:54:22.881Z,3.95
2022-11-18T18:56:49.425Z,3.78
2022-11-18T18:59:15.963Z,4.53
2022-11-18T19:01:42.770Z,3.60
2022-11-18T19:04:12.335Z,3.80
2022-11-18T19:09:26.588Z,2.85
2022-11-18T19:12:12.164Z,2.60
2022-11-18T19:14:39.298Z,2.55
2022-11-18T19:17:10.707Z,2.28
2022-11-18T19:19:59.108Z,2.28
2022-11-18T19:22:26.149Z,2.33
2022-11-18T19:24:53.555Z,1.80
2022-11-18T19:27:20.845Z,2.38
2022-11-18T19:29:47.335Z,1.73
2022-11-18T19:32:14.482Z,1.50
2022-11-18T19:34:41.808Z,3.00
2022-11-18T19:37:08.393Z,4.03
2022-11-18T19:39:35.396Z,2.10
2022-11-18T19:42:02.119Z,2.25
2022-11-18T19:44:28.985Z,2.00
2022-11-18T19:46:55.572Z,4.30
2022-11-18T19:49:22.459Z,5.30
2022-11-18T19:51:49.490Z,5.25
2022-11-18T19:54:15.903Z,4.18
2022-11-18T19:56:42.852Z,3.72
2022-11-18T19:59:11.975Z,3.15
2022-11-18T20:01:38.876Z,2.78
2022-11-18T20:04:05.706Z,3.08
2022-11-18T20:06:35.077Z,3.13
2022-11-18T20:09:01.954Z,2.75
2022-11-18T20:11:28.847Z,3.15
2022-11-18T20:13:55.319Z,3.00
2022-11-18T20:16:24.997Z,2.60
2022-11-18T20:19:07.790Z,2.47
2022-11-18T20:21:34.604Z,2.20
2022-11-18T20:24:03.457Z,2.40
2022-11-18T20:26:39.892Z,2.40
2022-11-18T20:29:07.578Z,2.38
2022-11-18T20:31:35.384Z,2.33
2022-11-18T20:34:02.353Z,1.88
2022-11-18T20:36:31.436Z,2.10
2022-11-18T20:39:00.270Z,2.65
2022-11-18T20:41:30.310Z,4.90
2022-11-18T20:43:57.642Z,4.28
2022-11-18T20:46:24.952Z,4.03
2022-11-18T20:48:51.564Z,3.85
2022-11-18T20:51:23.547Z,3.78
2022-11-18T20:53:51.117Z,6.65
2022-11-18T20:56:22.971Z,9.82
2022-11-18T20:58:49.710Z,4.00
2022-11-18T21:01:19.193Z,3.30
2022-11-18T21:03:52.842Z,2.85
2022-11-18T21:06:20.318Z,2.03
2022-11-18T21:08:46.930Z,4.28
2022-11-18T21:11:14.248Z,3.35
2022-11-18T21:14:01.046Z,3.50
2022-11-18T21:16:27.929Z,4.00
2022-11-18T21:18:54.956Z,3.28
2022-11-18T21:21:40.143Z,3.53
2022-11-18T21:24:07.459Z,3.90
2022-11-18T21:26:35.569Z,4.57
2022-11-18T21:29:04.779Z,3.67
2022-11-18T21:31:32.378Z,3.30
2022-11-18T21:33:59.191Z,3.47
2022-11-18T21:36:27.530Z,2.88
2022-11-18T21:38:54.110Z,3.13
2022-11-18T21:41:20.704Z,3.33
2022-11-18T21:46:34.795Z,2.75
2022-11-18T21:49:02.339Z,2.50
2022-11-18T21:51:31.263Z,2.15
2022-11-18T21:53:58.352Z,2.10
2022-11-18T21:56:28.777Z,2.47
2022-11-18T21:58:56.419Z,2.15
2022-11-18T22:01:25.947Z,2.50
2022-11-18T22:03:55.796Z,2.25
2022-11-18T22:06:24.575Z,2.72
2022-11-18T22:08:52.062Z,2.70
2022-11-18T22:11:20.524Z,2.50
2022-11-18T22:13:47.129Z,2.72
2022-11-18T22:16:16.053Z,2.97
2022-11-18T22:18:44.581Z,2.92
2022-11-18T22:21:17.562Z,3.08
2022-11-18T22:23:44.893Z,3.50
2022-11-18T22:26:14.183Z,4.05
2022-11-18T22:28:41.204Z,3.92
2022-11-18T22:31:16.112Z,4.05
2022-11-18T22:33:43.755Z,4.00
2022-11-18T22:36:15.693Z,5.05
2022-11-18T22:38:43.825Z,4.63
2022-11-18T22:41:39.944Z,4.20
2022-11-18T22:44:08.451Z,4.28
2022-11-18T22:46:35.927Z,4.18
2022-11-18T22:49:02.378Z,4.63
2022-11-18T22:51:29.156Z,4.95
2022-11-18T22:54:15.791Z,4.70
2022-11-18T22:56:42.105Z,4.18
2022-11-18T22:59:10.513Z,4.88
2022-11-18T23:01:39.535Z,4.60
2022-11-18T23:04:06.343Z,4.88
2022-11-18T23:06:32.783Z,4.95
2022-11-18T23:08:59.306Z,5.47
2022-11-18T23:11:44.480Z,4.25
2022-11-18T23:14:11.131Z,3.85
2022-11-18T23:16:40.240Z,4.10
2022-11-18T23:19:11.971Z,3.38
2022-11-18T23:21:38.647Z,2.55
2022-11-18T23:24:05.537Z,2.72
2022-11-18T23:26:32.312Z,2.33
2022-11-18T23:28:58.779Z,2.70
2022-11-18T23:31:27.815Z,2.80
2022-11-18T23:33:57.757Z,2.58
2022-11-18T23:36:25.543Z,2.20
2022-11-18T23:38:53.350Z,2.08
2022-11-18T23:41:20.667Z,2.60
2022-11-18T23:43:48.329Z,2.40
2022-11-18T23:46:17.198Z,2.22
2022-11-18T23:48:44.833Z,2.83
2022-11-18T23:51:12.597Z,2.38
2022-11-18T23:53:39.683Z,2.55
2022-11-18T23:56:12.030Z,2.70
2022-11-18T23:58:39.886Z,2.67
